Time;durP1;ratioP1;P1;durP2;ratioP2;P2;SDS_P1;SDS_P2;PMS_P1;PMS_P2;Temp;Humidity;BMP_temperature;BMP_pressure;BME280_temperature;BME280_humidity;BME280_pressure;Samples;Min_cycle;Max_cycle;Signal;HPM_P1;HPM_P2
2022/09/17 00:01:19;;;;;;;0.70;0.70;;;;;;;20.56;78.10;98139.44;5073895;28;20445;-81
2022/09/17 00:03:52;;;;;;;1.40;1.10;;;;;;;20.48;77.92;98137.03;5074017;28;20214;-80
2022/09/17 00:06:20;;;;;;;0.90;0.90;;;;;;;20.49;78.36;98133.44;5074145;28;20229;-81
2022/09/17 00:08:47;;;;;;;2.73;1.17;;;;;;;20.48;78.31;98144.03;5073624;28;20206;-81
2022/09/17 00:11:16;;;;;;;1.37;0.83;;;;;;;20.43;78.47;98147.19;5073551;28;20229;-81
2022/09/17 00:13:44;;;;;;;1.13;0.90;;;;;;;20.41;78.13;98144.00;5073384;28;20259;-80
2022/09/17 00:16:11;;;;;;;2.50;1.00;;;;;;;20.50;78.11;98126.44;5073468;28;20611;-81
2022/09/17 00:18:40;;;;;;;2.30;0.90;;;;;;;20.44;78.16;98122.81;5073470;28;20690;-81
2022/09/17 00:21:16;;;;;;;1.17;0.80;;;;;;;20.35;78.09;98129.19;5073715;28;20285;-81
2022/09/17 00:23:43;;;;;;;1.57;0.97;;;;;;;20.31;78.38;98138.38;5074799;28;20225;-81
2022/09/17 00:26:10;;;;;;;0.97;0.87;;;;;;;20.29;78.65;98140.38;5073417;28;20217;-80
2022/09/17 00:28:36;;;;;;;0.77;0.77;;;;;;;20.29;78.39;98127.41;5073343;28;20623;-81
2022/09/17 00:31:08;;;;;;;0.80;0.67;;;;;;;20.29;78.05;98109.22;5073132;28;20232;-80
2022/09/17 00:33:35;;;;;;;0.50;0.50;;;;;;;20.29;78.16;98101.44;5073169;28;20259;-81
2022/09/17 00:36:04;;;;;;;0.97;0.87;;;;;;;20.32;78.44;98106.22;5073194;28;20305;-81
2022/09/17 00:38:32;;;;;;;1.00;0.80;;;;;;;20.28;78.02;98107.63;5072908;28;20201;-81
2022/09/17 00:40:59;;;;;;;1.10;0.80;;;;;;;20.27;78.30;98108.63;5072965;28;20624;-80
2022/09/17 00:43:39;;;;;;;0.70;0.50;;;;;;;20.28;78.21;98107.63;5073038;28;20221;-81
2022/09/17 00:46:16;;;;;;;0.77;0.70;;;;;;;20.21;77.63;98106.81;5073023;28;20255;-81
2022/09/17 00:48:43;;;;;;;0.73;0.73;;;;;;;20.15;77.56;98116.19;5072725;28;20705;-81
2022/09/17 00:51:13;;;;;;;0.80;0.77;;;;;;;20.13;77.25;98120.78;5072399;28;20243;-81
2022/09/17 00:53:42;;;;;;;0.67;0.67;;;;;;;20.19;77.09;98121.78;5072582;28;20245;-80
2022/09/17 00:56:14;;;;;;;0.60;0.60;;;;;;;20.24;76.98;98106.41;5073967;28;20599;-80
2022/09/17 00:58:41;;;;;;;0.73;0.60;;;;;;;20.28;76.74;98102.44;5073580;28;20209;-80
2022/09/17 01:01:08;;;;;;;0.43;0.43;;;;;;;20.31;76.75;98107.25;5073347;28;20233;-80
2022/09/17 01:03:35;;;;;;;1.20;0.60;;;;;;;20.28;76.26;98097.25;5072847;28;20598;-80
2022/09/17 01:06:15;;;;;;;0.93;0.67;;;;;;;20.35;76.02;98098.84;5072491;28;20221;-81
2022/09/17 01:08:57;;;;;;;0.50;0.50;;;;;;;20.42;76.33;98104.06;5073098;28;20194;-81
2022/09/17 01:11:42;;;;;;;0.33;0.33;;;;;;;20.48;76.21;98098.06;5072442;28;20607;-81
2022/09/17 01:14:19;;;;;;;0.93;0.50;;;;;;;20.51;75.34;98095.09;5072737;28;20233;-81
2022/09/17 01:16:56;;;;;;;0.50;0.50;;;;;;;20.55;74.33;98104.09;5072173;28;20230;-80
2022/09/17 01:19:46;;;;;;;0.40;0.40;;;;;;;20.55;75.02;98104.09;5072555;28;20607;-80
2022/09/17 01:22:22;;;;;;;0.40;0.40;;;;;;;20.66;76.92;98081.94;5072418;28;20218;-81
2022/09/17 01:25:17;;;;;;;0.80;0.80;;;;;;;20.72;78.82;98046.56;5072374;28;20206;-80
2022/09/17 01:28:20;;;;;;;0.50;0.50;;;;;;;20.69;80.75;98063.34;5072266;28;20206;-80
2022/09/17 01:31:03;;;;;;;0.77;0.77;;;;;;;20.64;82.34;98057.16;5071748;28;20233;-80
2022/09/17 01:33:40;;;;;;;0.77;0.50;;;;;;;20.60;83.03;98043.78;5072811;28;20795;-80
2022/09/17 01:36:19;;;;;;;0.47;0.47;;;;;;;20.60;83.91;98058.56;5072845;28;20730;-80
2022/09/17 01:38:53;;;;;;;0.50;0.50;;;;;;;20.60;83.84;98063.75;5072932;28;20509;-80
2022/09/17 01:41:27;;;;;;;0.80;0.70;;;;;;;20.58;84.48;98062.13;5072901;28;20233;-80
2022/09/17 01:43:58;;;;;;;0.50;0.50;;;;;;;20.48;85.02;98056.53;5072649;28;20194;-80
2022/09/17 01:46:31;;;;;;;1.13;0.70;;;;;;;20.42;85.85;98057.34;5072634;28;20225;-80
2022/09/17 01:49:02;;;;;;;0.70;0.50;;;;;;;20.44;85.32;98059.72;5071828;28;20201;-80
2022/09/17 01:51:35;;;;;;;0.63;0.63;;;;;;;20.43;85.33;98058.91;5072032;28;20221;-80
2022/09/17 01:54:07;;;;;;;0.50;0.50;;;;;;;20.43;84.96;98056.31;5071801;28;20246;-80
2022/09/17 01:56:40;;;;;;;1.17;0.60;;;;;;;20.42;84.85;98046.94;5071525;28;20710;-80
2022/09/17 01:59:16;;;;;;;0.43;0.43;;;;;;;20.39;84.65;98042.16;5071654;28;20594;-80
2022/09/17 02:01:48;;;;;;;2.10;0.70;;;;;;;20.42;84.06;98039.16;5071985;28;20213;-80
2022/09/17 02:04:21;;;;;;;0.87;0.50;;;;;;;20.45;85.11;98041.34;5071970;28;20214;-80
2022/09/17 02:06:56;;;;;;;0.80;0.70;;;;;;;20.43;85.21;98045.94;5072592;28;20226;-80
2022/09/17 02:09:29;;;;;;;0.50;0.50;;;;;;;20.39;84.96;98036.13;5072518;28;20582;-80
2022/09/17 02:12:02;;;;;;;1.07;0.90;;;;;;;20.39;83.85;98042.16;5071878;28;20735;-80
2022/09/17 02:14:34;;;;;;;0.83;0.67;;;;;;;20.40;84.09;98042.94;5071898;28;20723;-80
2022/09/17 02:17:10;;;;;;;1.03;0.63;;;;;;;20.44;84.51;98038.94;5071761;28;20242;-80
2022/09/17 02:19:40;;;;;;;2.13;0.77;;;;;;;20.44;85.03;98044.94;5071697;28;20209;-80
2022/09/17 02:22:16;;;;;;;0.37;0.37;;;;;;;20.45;85.45;98043.94;5071114;28;20226;-80
2022/09/17 02:24:50;;;;;;;0.50;0.50;;;;;;;20.43;84.07;98048.53;5071286;28;20268;-80
2022/09/17 02:27:30;;;;;;;0.77;0.63;;;;;;;20.39;81.95;98049.94;5071108;28;20207;-80
2022/09/17 02:29:56;;;;;;;0.27;0.27;;;;;;;20.38;80.90;98044.94;5070661;28;20196;-81
2022/09/17 02:32:25;;;;;;;0.67;0.67;;;;;;;20.39;81.51;98036.97;5070798;28;20217;-80
2022/09/17 02:34:52;;;;;;;0.60;0.60;;;;;;;20.43;80.19;98032.97;5070685;28;20316;-80
2022/09/17 02:37:19;;;;;;;0.50;0.40;;;;;;;20.41;80.23;98034.16;5070808;28;20280;-81
2022/09/17 02:39:46;;;;;;;0.70;0.70;;;;;;;20.40;81.04;98022.97;5071610;28;20206;-80
2022/09/17 02:42:23;;;;;;;0.83;0.40;;;;;;;20.41;80.89;98011.56;5070780;28;20193;-80
2022/09/17 02:45:00;;;;;;;0.50;0.50;;;;;;;20.45;80.07;98010.19;5070915;28;20209;-80
2022/09/17 02:48:03;;;;;;;0.40;0.40;;;;;;;20.48;79.99;98011.59;5070891;28;20208;-80
2022/09/17 02:50:41;;;;;;;0.70;0.60;;;;;;;20.46;79.86;97991.00;5071032;28;20605;-80
2022/09/17 02:53:27;;;;;;;0.47;0.47;;;;;;;20.46;79.68;97983.22;5070536;28;20233;-80
2022/09/17 02:56:02;;;;;;;0.60;0.60;;;;;;;20.44;79.21;97987.00;5070798;28;20313;-80
2022/09/17 02:58:37;;;;;;;0.30;0.30;;;;;;;20.40;79.33;97981.44;5071037;28;20190;-80
2022/09/17 03:01:13;;;;;;;0.60;0.50;;;;;;;20.38;80.10;97972.25;5070288;28;20226;-80
2022/09/17 03:03:45;;;;;;;0.90;0.70;;;;;;;20.31;80.15;97967.06;5070720;28;20202;-80
2022/09/17 03:06:13;;;;;;;0.60;0.60;;;;;;;20.26;80.22;97970.25;5070295;28;20217;-80
2022/09/17 03:08:42;;;;;;;0.50;0.50;;;;;;;20.25;80.52;97965.28;5070463;28;20198;-80
2022/09/17 03:11:11;;;;;;;0.63;0.60;;;;;;;20.23;81.17;97959.47;5069981;28;20225;-80
2022/09/17 03:13:38;;;;;;;0.70;0.70;;;;;;;20.17;80.41;97955.88;5070495;28;20235;-80
2022/09/17 03:16:06;;;;;;;0.80;0.70;;;;;;;20.10;78.83;97958.47;5076061;28;20237;-81
2022/09/17 03:18:33;;;;;;;0.40;0.40;;;;;;;20.10;78.48;97944.69;5077476;28;20669;-81
2022/09/17 03:21:02;;;;;;;0.57;0.57;;;;;;;20.07;77.86;97938.13;5077612;28;20237;-81
2022/09/17 03:23:28;;;;;;;0.73;0.73;;;;;;;20.08;76.46;97931.94;5077384;28;20198;-81
2022/09/17 03:25:55;;;;;;;0.40;0.40;;;;;;;20.13;76.51;97924.34;5077384;28;20224;-80
2022/09/17 03:28:24;;;;;;;0.53;0.50;;;;;;;20.21;76.02;97912.16;5077280;28;20220;-80
2022/09/17 03:30:51;;;;;;;0.70;0.60;;;;;;;20.23;76.16;97923.13;5076894;28;20316;-80
2022/09/17 03:33:18;;;;;;;0.43;0.43;;;;;;;20.18;76.23;97922.94;5076661;28;20588;-80
2022/09/17 03:35:46;;;;;;;0.40;0.40;;;;;;;20.16;76.40;97927.53;5076415;28;20246;-81
2022/09/17 03:38:14;;;;;;;0.60;0.60;;;;;;;20.09;77.09;97917.94;5076935;28;20202;-81
2022/09/17 03:40:41;;;;;;;0.60;0.50;;;;;;;20.05;77.13;97921.16;5077083;28;20305;-80
2022/09/17 03:43:08;;;;;;;0.50;0.50;;;;;;;20.08;77.09;97911.16;5076376;28;20198;-80
2022/09/17 03:45:35;;;;;;;0.27;0.27;;;;;;;20.06;76.94;97904.59;5076824;28;20231;-80
2022/09/17 03:48:02;;;;;;;0.50;0.50;;;;;;;20.05;76.64;97895.22;5076755;28;20735;-81
2022/09/17 03:50:29;;;;;;;1.53;0.73;;;;;;;20.04;76.55;97893.59;5077297;28;20229;-80
2022/09/17 03:52:56;;;;;;;0.40;0.40;;;;;;;20.03;75.70;97897.19;5077460;28;20220;-80
2022/09/17 03:55:24;;;;;;;0.53;0.53;;;;;;;19.99;76.45;97912.38;5077102;28;20252;-80
2022/09/17 03:57:51;;;;;;;0.50;0.50;;;;;;;19.98;76.09;97909.97;5077232;28;20610;-80
2022/09/17 04:00:18;;;;;;;0.60;0.60;;;;;;;19.92;76.33;97901.19;5076784;28;20239;-80
2022/09/17 04:02:45;;;;;;;0.30;0.30;;;;;;;19.87;76.44;97903.59;5077210;28;20197;-80
2022/09/17 04:05:12;;;;;;;0.60;0.60;;;;;;;19.82;76.64;97891.22;5077040;28;20595;-80
2022/09/17 04:07:40;;;;;;;0.70;0.70;;;;;;;19.90;76.54;97891.03;5076641;28;20210;-80
2022/09/17 04:10:08;;;;;;;0.53;0.53;;;;;;;19.98;75.69;97895.19;5076604;28;20223;-80
2022/09/17 04:12:37;;;;;;;0.50;0.50;;;;;;;19.96;76.30;97891.22;5076427;28;20201;-81
2022/09/17 04:15:04;;;;;;;0.40;0.40;;;;;;;19.99;76.30;97891.63;5076483;28;20259;-80
2022/09/17 04:17:31;;;;;;;0.30;0.30;;;;;;;20.10;75.63;97898.81;5076913;28;20212;-80
2022/09/17 04:19:58;;;;;;;1.10;0.57;;;;;;;20.11;75.08;97900.38;5076669;28;20217;-80
2022/09/17 04:22:25;;;;;;;0.40;0.40;;;;;;;20.09;75.10;97886.00;5076797;28;20202;-81
2022/09/17 04:24:52;;;;;;;0.30;0.30;;;;;;;20.11;74.95;97884.81;5076673;28;20240;-80
2022/09/17 04:27:19;;;;;;;0.23;0.23;;;;;;;20.16;74.48;97886.00;5073637;28;20255;-80
2022/09/17 04:29:47;;;;;;;0.90;0.80;;;;;;;20.23;74.30;97881.63;5073176;28;20213;-80
2022/09/17 04:32:14;;;;;;;0.50;0.50;;;;;;;20.30;74.09;97887.56;5073522;28;20210;-80
2022/09/17 04:34:41;;;;;;;1.77;0.67;;;;;;;20.32;73.94;97890.78;5073186;28;20237;-80
2022/09/17 04:37:07;;;;;;;0.60;0.50;;;;;;;20.43;73.98;97892.75;5072810;28;20216;-80
2022/09/17 04:39:34;;;;;;;0.70;0.50;;;;;;;20.44;73.62;97891.75;5073356;28;20205;-80
2022/09/17 04:42:01;;;;;;;0.80;0.60;;;;;;;20.46;73.22;97891.56;5072916;28;20252;-80
2022/09/17 04:44:28;;;;;;;1.97;0.50;;;;;;;20.52;72.73;97890.75;5072969;28;20206;-81
2022/09/17 04:46:56;;;;;;;0.33;0.33;;;;;;;20.61;72.44;97883.56;5072904;28;20229;-81
2022/09/17 04:49:23;;;;;;;0.60;0.60;;;;;;;20.69;71.97;97880.72;5072941;28;20572;-80
2022/09/17 04:51:50;;;;;;;0.70;0.33;;;;;;;20.78;71.25;97874.31;5072842;28;20226;-80
2022/09/17 04:54:17;;;;;;;0.20;0.20;;;;;;;20.92;70.01;97873.25;5072503;28;20224;-81
2022/09/17 04:56:44;;;;;;;0.27;0.27;;;;;;;21.05;69.82;97871.59;5072653;28;20220;-80
2022/09/17 04:59:11;;;;;;;0.57;0.50;;;;;;;21.15;69.73;97874.53;5072892;28;20207;-80
2022/09/17 05:01:37;;;;;;;1.37;0.87;;;;;;;21.22;69.75;97876.09;5072449;28;20219;-80
2022/09/17 05:04:06;;;;;;;0.80;0.63;;;;;;;21.27;70.26;97878.06;5073352;28;20208;-81
2022/09/17 05:06:32;;;;;;;0.87;0.60;;;;;;;21.29;71.58;97896.84;5072300;28;20223;-81
2022/09/17 05:09:00;;;;;;;0.40;0.40;;;;;;;21.22;72.17;97896.09;5073044;28;20480;-81
2022/09/17 05:11:28;;;;;;;0.73;0.73;;;;;;;21.14;72.63;97910.13;5072430;28;20228;-81
2022/09/17 05:13:55;;;;;;;0.40;0.40;;;;;;;21.21;72.47;97900.50;5072983;28;20235;-81
2022/09/17 05:16:22;;;;;;;0.50;0.30;;;;;;;21.28;73.86;97895.25;5072127;28;20253;-81
2022/09/17 05:18:50;;;;;;;0.53;0.50;;;;;;;21.32;73.91;97895.63;5072452;28;20210;-81
2022/09/17 05:21:19;;;;;;;0.53;0.50;;;;;;;21.30;73.40;97902.84;5071844;28;20708;-81
2022/09/17 05:23:46;;;;;;;0.40;0.40;;;;;;;21.33;73.35;97898.03;5071914;28;20215;-80
2022/09/17 05:26:14;;;;;;;0.37;0.37;;;;;;;21.32;73.39;97903.44;5072081;28;20229;-80
2022/09/17 05:28:41;;;;;;;0.60;0.60;;;;;;;21.34;73.87;97907.41;5072347;28;20196;-80
2022/09/17 05:31:08;;;;;;;0.67;0.60;;;;;;;21.31;74.65;97897.44;5071848;28;20573;-81
2022/09/17 05:33:35;;;;;;;0.40;0.40;;;;;;;21.32;74.09;97888.66;5071893;28;20200;-81
2022/09/17 05:36:02;;;;;;;1.00;0.53;;;;;;;21.30;73.90;97901.03;5071518;28;20220;-81
2022/09/17 05:38:30;;;;;;;0.67;0.60;;;;;;;21.31;74.61;97897.44;5070915;28;20208;-81
2022/09/17 05:40:57;;;;;;;0.90;0.60;;;;;;;21.20;74.35;97900.69;5071832;28;20219;-81
2022/09/17 05:43:24;;;;;;;0.50;0.50;;;;;;;21.29;73.62;97902.03;5072052;28;20211;-80
2022/09/17 05:45:53;;;;;;;0.50;0.50;;;;;;;21.40;74.01;97898.81;5072054;28;20277;-81
2022/09/17 05:48:20;;;;;;;0.67;0.50;;;;;;;21.40;73.70;97882.41;5071622;28;20206;-81
2022/09/17 05:50:47;;;;;;;0.73;0.73;;;;;;;21.42;73.62;97881.19;5071823;28;20224;-80
2022/09/17 05:53:14;;;;;;;1.10;0.67;;;;;;;21.49;73.22;97875.94;5071765;28;20231;-80
2022/09/17 05:55:42;;;;;;;0.63;0.57;;;;;;;21.45;73.59;97880.78;5071757;28;20232;-80
2022/09/17 05:58:11;;;;;;;0.83;0.70;;;;;;;21.48;72.49;97884.75;5071410;28;20194;-81
2022/09/17 06:00:38;;;;;;;0.57;0.57;;;;;;;21.47;74.81;97894.38;5071430;28;20701;-81
2022/09/17 06:03:05;;;;;;;0.70;0.70;;;;;;;21.50;74.22;97897.53;5071031;28;20233;-81
2022/09/17 06:05:32;;;;;;;0.73;0.70;;;;;;;21.45;75.10;97891.19;5071459;28;21030;-81
2022/09/17 06:07:59;;;;;;;0.60;0.60;;;;;;;21.45;75.22;97895.59;5071097;28;20199;-80
2022/09/17 06:10:26;;;;;;;0.70;0.70;;;;;;;21.48;74.22;97906.34;5071215;28;20220;-80
2022/09/17 06:12:57;;;;;;;0.67;0.67;;;;;;;21.53;75.20;97892.75;5070981;28;20204;-81
2022/09/17 06:15:24;;;;;;;0.60;0.60;;;;;;;21.56;74.68;97904.53;5071175;28;20754;-83
2022/09/17 06:17:51;;;;;;;0.50;0.50;;;;;;;21.57;73.25;97904.31;5072108;28;20204;-83
2022/09/17 06:20:18;;;;;;;0.50;0.50;;;;;;;21.57;72.29;97901.69;5071121;28;20220;-83
2022/09/17 06:22:45;;;;;;;0.57;0.50;;;;;;;21.66;71.21;97917.84;5071103;28;20196;-83
2022/09/17 06:25:13;;;;;;;1.00;0.57;;;;;;;21.68;70.63;97911.44;5071569;28;20214;-83
2022/09/17 06:27:39;;;;;;;0.43;0.43;;;;;;;21.79;70.19;97912.56;5071735;28;20206;-82
2022/09/17 06:30:08;;;;;;;1.13;0.90;;;;;;;21.74;70.86;97919.41;5071970;28;20232;-82
2022/09/17 06:32:35;;;;;;;1.10;0.77;;;;;;;21.68;71.31;97934.84;5072202;28;20203;-83
2022/09/17 06:35:02;;;;;;;0.40;0.40;;;;;;;21.68;71.72;97947.06;5071811;28;20232;-83
2022/09/17 06:37:30;;;;;;;0.77;0.77;;;;;;;21.69;69.48;97948.66;5071547;28;20196;-83
2022/09/17 06:39:58;;;;;;;2.87;1.03;;;;;;;21.81;68.11;97949.56;5071346;28;20289;-83
2022/09/17 06:42:25;;;;;;;1.87;0.50;;;;;;;21.98;68.17;97951.66;5071043;28;20638;-83
2022/09/17 06:44:52;;;;;;;2.37;0.70;;;;;;;22.01;67.36;97946.81;5070656;28;20201;-83
2022/09/17 06:47:20;;;;;;;0.60;0.60;;;;;;;22.06;67.13;97943.59;5070887;28;20200;-82
2022/09/17 06:49:47;;;;;;;0.50;0.50;;;;;;;22.11;66.49;97935.94;5072714;28;20228;-83
2022/09/17 06:52:14;;;;;;;0.70;0.70;;;;;;;22.21;66.84;97936.28;5074219;28;20221;-83
2022/09/17 06:54:41;;;;;;;0.70;0.70;;;;;;;22.18;67.04;97928.91;5073719;28;20431;-82
2022/09/17 06:57:07;;;;;;;2.20;0.90;;;;;;;22.11;66.80;97925.53;5073706;28;20237;-82
2022/09/17 06:59:34;;;;;;;0.80;0.80;;;;;;;22.20;67.06;97936.50;5072996;28;20570;-82
2022/09/17 07:02:01;;;;;;;0.40;0.40;;;;;;;22.21;66.08;97938.88;5072166;28;20651;-82
2022/09/17 07:04:29;;;;;;;0.50;0.47;;;;;;;22.29;66.98;97932.63;5072029;28;20214;-82
2022/09/17 07:06:56;;;;;;;2.50;0.53;;;;;;;22.30;69.47;97924.56;5070976;28;20225;-82
2022/09/17 07:09:23;;;;;;;1.07;0.97;;;;;;;22.23;69.75;97929.06;5071259;28;20202;-82
2022/09/17 07:11:50;;;;;;;1.30;0.80;;;;;;;22.32;72.19;97938.19;5070975;28;20231;-82
2022/09/17 07:14:17;;;;;;;0.73;0.70;;;;;;;22.29;70.96;97933.41;5070263;28;20195;-81
2022/09/17 07:16:44;;;;;;;0.60;0.50;;;;;;;22.29;72.21;97923.00;5070533;28;20685;-82
2022/09/17 07:19:11;;;;;;;1.50;0.90;;;;;;;22.32;71.32;97927.78;5070626;28;20194;-82
2022/09/17 07:21:39;;;;;;;0.63;0.63;;;;;;;22.36;69.54;97913.28;5070180;28;20211;-81
2022/09/17 07:24:07;;;;;;;0.60;0.60;;;;;;;22.45;71.86;97915.63;5070552;28;20205;-82
2022/09/17 07:26:33;;;;;;;1.17;1.07;;;;;;;22.46;71.32;97922.44;5073756;28;20222;-82
2022/09/17 07:29:01;;;;;;;1.00;0.60;;;;;;;22.50;71.38;97928.81;5074023;28;20567;-82
2022/09/17 07:31:27;;;;;;;0.80;0.80;;;;;;;22.48;71.52;97941.25;5072321;28;20224;-82
2022/09/17 07:33:54;;;;;;;0.93;0.83;;;;;;;22.42;72.33;97937.69;5072230;28;20198;-82
2022/09/17 07:36:21;;;;;;;1.47;1.07;;;;;;;22.48;70.50;97930.81;5071035;28;20242;-82
2022/09/17 07:38:49;;;;;;;1.85;1.17;;;;;;;22.58;71.85;97931.91;5071674;28;20202;-82
2022/09/17 07:41:17;;;;;;;5.10;2.90;;;;;;;22.63;72.13;97933.06;5071024;28;20227;-82
2022/09/17 07:43:45;;;;;;;0.50;0.50;;;;;;;22.68;73.13;97944.44;5071045;28;20194;-82
2022/09/17 07:46:14;;;;;;;1.20;0.95;;;;;;;22.72;71.34;97943.00;5070452;28;20230;-82
2022/09/17 07:48:41;;;;;;;2.13;0.80;;;;;;;22.82;69.51;97934.69;5070605;28;20685;-83
2022/09/17 07:51:07;;;;;;;1.05;0.85;;;;;;;23.06;69.26;97943.44;5070015;28;20215;-83
2022/09/17 07:53:34;;;;;;;0.40;0.40;;;;;;;23.38;67.52;97935.41;5070457;28;20213;-82
2022/09/17 07:56:03;;;;;;;1.65;0.60;;;;;;;23.74;68.89;97947.59;5069366;28;20269;-82
2022/09/17 07:58:32;;;;;;;0.80;0.60;;;;;;;23.96;66.03;97947.84;5070206;28;20195;-82
2022/09/17 08:01:02;;;;;;;0.60;0.60;;;;;;;24.25;66.03;97943.56;5071441;28;20284;-81
2022/09/17 08:03:29;;;;;;;0.40;0.40;;;;;;;24.41;63.88;97944.72;5074562;28;20249;-82
2022/09/17 08:06:03;;;;;;;0.85;0.60;;;;;;;24.57;64.10;97944.03;5075895;28;20230;-83
2022/09/17 08:08:31;;;;;;;0.57;0.55;;;;;;;24.80;60.75;97942.41;5074651;28;20240;-82
2022/09/17 08:11:00;;;;;;;0.45;0.38;;;;;;;25.32;63.33;97950.25;5074520;28;20219;-83
2022/09/17 08:13:29;;;;;;;0.20;0.20;;;;;;;25.76;59.07;97950.50;5074575;28;20682;-83
2022/09/17 08:15:59;;;;;;;0.38;0.38;;;;;;;25.92;59.82;97957.59;5074046;28;20798;-83
2022/09/17 08:18:27;;;;;;;0.60;0.60;;;;;;;26.03;59.22;97963.78;5074130;28;20206;-83
2022/09/17 08:20:58;;;;;;;0.38;0.38;;;;;;;26.09;58.48;97959.41;5073783;28;20600;-83
2022/09/17 08:23:25;;;;;;;0.77;0.70;;;;;;;25.79;55.98;97963.09;5073357;28;20583;-83
2022/09/17 08:25:53;;;;;;;0.50;0.30;;;;;;;25.60;56.32;97940.78;5073362;28;20219;-83
2022/09/17 08:28:20;;;;;;;0.40;0.40;;;;;;;25.55;58.55;97944.13;5073292;28;20711;-83
2022/09/17 08:30:49;;;;;;;0.32;0.32;;;;;;;25.40;57.10;97946.47;5073544;28;20250;-83
2022/09/17 08:33:16;;;;;;;3.13;0.50;;;;;;;25.40;58.28;97947.25;5074117;28;20559;-83
2022/09/17 08:35:43;;;;;;;0.82;0.65;;;;;;;25.37;58.39;97937.25;5072994;28;20239;-83
2022/09/17 08:38:10;;;;;;;0.60;0.55;;;;;;;25.27;57.71;97944.91;5073470;28;20199;-83
2022/09/17 08:40:45;;;;;;;0.50;0.50;;;;;;;25.29;59.54;97950.72;5072728;28;20214;-83
2022/09/17 08:43:18;;;;;;;0.50;0.50;;;;;;;25.20;58.76;97958.13;5072918;28;20210;-83
2022/09/17 08:45:45;;;;;;;0.40;0.40;;;;;;;25.10;55.90;97962.34;5072920;28;20675;-83
2022/09/17 08:48:17;;;;;;;0.32;0.32;;;;;;;25.08;56.90;97965.22;5073152;28;20214;-82
2022/09/17 08:50:44;;;;;;;0.50;0.50;;;;;;;24.97;57.07;97979.91;5072922;28;20697;-83
2022/09/17 08:53:28;;;;;;;1.40;0.77;;;;;;;24.76;58.68;97983.13;5072888;28;20206;-84
2022/09/17 08:56:01;;;;;;;0.25;0.22;;;;;;;24.66;59.43;97982.88;5072540;28;20260;-85
2022/09/17 08:58:39;;;;;;;0.68;0.38;;;;;;;24.60;60.89;97984.59;5072810;28;20203;-83
2022/09/17 09:01:19;;;;;;;0.40;0.40;;;;;;;24.45;61.24;97982.44;5072267;28;20222;-83
2022/09/17 09:04:03;;;;;;;0.40;0.40;;;;;;;24.46;61.67;97989.25;5072506;28;20194;-82
2022/09/17 09:06:35;;;;;;;0.30;0.30;;;;;;;24.25;61.34;97997.63;5072323;28;20665;-82
2022/09/17 09:09:05;;;;;;;0.40;0.40;;;;;;;24.19;62.57;97986.25;5072269;28;20194;-82
2022/09/17 09:11:32;;;;;;;0.30;0.30;;;;;;;24.24;62.98;97965.50;5072622;28;20920;-83
2022/09/17 09:14:07;;;;;;;0.30;0.30;;;;;;;24.38;63.98;97955.63;5072167;28;20194;-83
2022/09/17 09:16:39;;;;;;;1.83;0.40;;;;;;;24.53;61.37;97957.81;5072099;28;20230;-83
2022/09/17 09:19:20;;;;;;;0.93;0.50;;;;;;;24.71;61.75;97954.25;5072114;28;20199;-83
2022/09/17 09:22:00;;;;;;;0.50;0.50;;;;;;;24.75;62.54;97965.81;5072246;28;20242;-83
2022/09/17 09:24:37;;;;;;;1.33;0.63;;;;;;;24.61;61.27;97955.63;5072360;28;20492;-83
2022/09/17 09:27:15;;;;;;;0.88;0.60;;;;;;;24.40;62.52;97961.38;5072279;28;20505;-83
2022/09/17 09:29:48;;;;;;;0.43;0.43;;;;;;;24.48;64.29;97966.31;5072181;28;20195;-83
2022/09/17 09:32:25;;;;;;;1.17;0.80;;;;;;;24.62;65.12;97972.91;5071822;28;20198;-83
2022/09/17 09:34:55;;;;;;;0.73;0.73;;;;;;;24.59;64.14;97973.34;5071721;28;20198;-83
2022/09/17 09:37:26;;;;;;;0.95;0.80;;;;;;;24.45;64.06;97997.34;5072103;28;20206;-83
2022/09/17 09:39:56;;;;;;;0.82;0.60;;;;;;;24.20;63.69;97979.22;5072062;28;20289;-83
2022/09/17 09:42:30;;;;;;;0.95;0.90;;;;;;;24.15;65.67;97951.97;5072045;28;20195;-83
2022/09/17 09:45:00;;;;;;;0.70;0.70;;;;;;;24.26;65.01;97954.81;5071764;28;20198;-83
2022/09/17 09:47:45;;;;;;;0.93;0.77;;;;;;;24.15;65.27;97988.53;5071788;28;20717;-83
2022/09/17 09:50:39;;;;;;;1.02;0.80;;;;;;;24.02;64.78;97987.94;5072246;28;20226;-83
2022/09/17 09:53:14;;;;;;;2.00;1.30;;;;;;;24.09;65.51;97981.59;5071781;28;20194;-83
2022/09/17 09:56:02;;;;;;;1.25;1.05;;;;;;;23.78;65.82;97976.66;5072041;28;20230;-83
2022/09/17 09:58:35;;;;;;;1.20;0.88;;;;;;;23.69;65.59;97997.81;5071467;28;20242;-83
2022/09/17 10:01:02;;;;;;;0.80;0.80;;;;;;;23.69;67.08;98004.84;5071152;28;20219;-83
2022/09/17 10:03:31;;;;;;;3.08;1.25;;;;;;;23.90;66.96;98006.97;5071625;28;20199;-83
2022/09/17 10:06:01;;;;;;;1.88;1.38;;;;;;;24.14;65.15;98007.84;5071710;28;20634;-83
2022/09/17 10:08:30;;;;;;;2.25;1.30;;;;;;;24.39;66.11;98009.44;5071030;28;20203;-83
2022/09/17 10:10:59;;;;;;;1.33;1.13;;;;;;;24.60;63.77;98018.56;5071170;28;20733;-83
2022/09/17 10:13:28;;;;;;;1.02;0.80;;;;;;;24.60;64.39;98006.28;5071202;28;20222;-83
2022/09/17 10:15:54;;;;;;;1.77;1.00;;;;;;;24.73;63.02;98009.72;5070938;28;20234;-83
2022/09/17 10:18:23;;;;;;;1.95;1.50;;;;;;;24.81;62.77;98019.81;5071219;28;20233;-83
2022/09/17 10:20:59;;;;;;;0.95;0.95;;;;;;;24.82;63.01;98021.41;5071020;28;20222;-83
2022/09/17 10:23:30;;;;;;;2.78;1.55;;;;;;;24.78;63.98;98025.50;5071770;28;20195;-83
2022/09/17 10:25:57;;;;;;;1.45;1.23;;;;;;;24.73;62.39;98031.44;5071233;28;20219;-83
2022/09/17 10:28:50;;;;;;;1.00;0.90;;;;;;;24.69;62.45;98035.50;5072583;28;20712;-83
2022/09/17 10:31:17;;;;;;;2.08;0.85;;;;;;;24.77;62.18;98048.22;5071692;28;20222;-83
2022/09/17 10:33:57;;;;;;;2.38;1.10;;;;;;;24.76;61.83;98056.31;5071760;28;20195;-83
2022/09/17 10:36:41;;;;;;;1.55;1.17;;;;;;;24.85;62.74;98060.19;5071149;28;20233;-83
2022/09/17 10:39:31;;;;;;;1.48;1.20;;;;;;;24.82;61.87;98065.88;5069612;28;20199;-83
2022/09/17 10:41:59;;;;;;;1.67;0.98;;;;;;;24.82;63.12;98073.72;5071228;28;20315;-83
2022/09/17 10:44:28;;;;;;;0.93;0.80;;;;;;;24.79;63.13;98071.53;5070762;28;20209;-83
2022/09/17 10:47:01;;;;;;;0.80;0.80;;;;;;;24.78;62.60;98064.72;5070818;28;20225;-83
2022/09/17 10:49:37;;;;;;;0.73;0.73;;;;;;;24.75;61.88;98073.00;5070852;28;20194;-83
2022/09/17 10:52:13;;;;;;;1.02;0.80;;;;;;;24.68;61.64;98085.41;5070260;28;20230;-83
2022/09/17 10:54:51;;;;;;;1.27;1.05;;;;;;;24.65;61.47;98097.09;5071018;28;20212;-83
2022/09/17 10:57:27;;;;;;;1.15;0.95;;;;;;;24.48;61.55;98098.78;5070492;28;20230;-83
2022/09/17 11:00:08;;;;;;;0.80;0.55;;;;;;;24.43;63.35;98103.88;5070729;28;20206;-83
2022/09/17 11:03:08;;;;;;;0.63;0.40;;;;;;;24.12;63.91;98116.16;5070720;28;20202;-83
2022/09/17 11:05:48;;;;;;;1.48;1.00;;;;;;;24.03;65.80;98131.34;5070278;28;20222;-83
2022/09/17 11:08:24;;;;;;;1.65;0.85;;;;;;;23.90;67.87;98144.56;5070557;28;20202;-83
2022/09/17 11:11:01;;;;;;;1.10;0.88;;;;;;;23.70;70.06;98158.63;5070297;28;20222;-83
2022/09/17 11:13:36;;;;;;;1.23;0.93;;;;;;;23.47;71.24;98154.06;5070561;28;20205;-83
2022/09/17 11:16:15;;;;;;;1.83;1.20;;;;;;;23.36;73.87;98148.72;5070244;28;20685;-83
2022/09/17 11:18:45;;;;;;;1.00;0.90;;;;;;;23.01;76.42;98131.81;5070406;28;20213;-82
2022/09/17 11:21:39;;;;;;;1.33;1.23;;;;;;;22.95;78.88;98129.25;5070478;28;20210;-83
2022/09/17 11:24:44;;;;;;;0.60;0.60;;;;;;;22.38;81.18;98114.41;5070408;28;20612;-83
2022/09/17 11:27:25;;;;;;;0.60;0.60;;;;;;;22.09;83.82;98115.75;5069311;28;20250;-83
2022/09/17 11:30:08;;;;;;;1.00;0.90;;;;;;;21.97;85.14;98101.03;5070266;28;20195;-83
2022/09/17 11:33:13;;;;;;;0.53;0.53;;;;;;;21.73;85.09;98098.13;5070265;28;20252;-83
2022/09/17 11:35:46;;;;;;;1.10;0.63;;;;;;;21.67;86.21;98094.56;5069302;28;20696;-83
2022/09/17 11:38:21;;;;;;;0.90;0.80;;;;;;;21.59;85.94;98094.00;5074073;28;20209;-83
2022/09/17 11:40:55;;;;;;;0.60;0.60;;;;;;;21.57;87.11;98081.19;5074367;28;20224;-83
2022/09/17 11:43:27;;;;;;;0.60;0.60;;;;;;;21.41;88.42;98066.84;5074195;28;20209;-84
2022/09/17 11:46:00;;;;;;;0.83;0.70;;;;;;;21.48;88.74;98057.19;5074209;28;20230;-83
2022/09/17 11:48:35;;;;;;;0.57;0.53;;;;;;;21.59;89.21;98052.38;5073837;28;20263;-83
2022/09/17 11:51:12;;;;;;;0.20;0.20;;;;;;;21.69;88.91;98047.50;5073804;28;20231;-83
2022/09/17 11:53:45;;;;;;;0.43;0.43;;;;;;;21.85;89.49;98036.63;5073997;28;20198;-83